sensor_id;sensor_type;location;lat;lon;timestamp;P1;durP1;ratioP1;P2;durP2;ratioP2
27794;SDS011;15176;50.844;4.412;2023-04-08T00:01:09;19.80;;;6.80;;
27794;SDS011;15176;50.844;4.412;2023-04-08T00:03:35;19.23;;;6.47;;
27794;SDS011;15176;50.844;4.412;2023-04-08T00:06:01;24.98;;;6.75;;
27794;SDS011;15176;50.844;4.412;2023-04-08T00:08:28;23.27;;;7.30;;
27794;SDS011;15176;50.844;4.412;2023-04-08T00:10:53;14.15;;;4.70;;
27794;SDS011;15176;50.844;4.412;2023-04-08T00:13:19;23.90;;;6.88;;
27794;SDS011;15176;50.844;4.412;2023-04-08T00:15:45;17.30;;;6.13;;
27794;SDS011;15176;50.844;4.412;2023-04-08T00:18:12;18.38;;;6.82;;
27794;SDS011;15176;50.844;4.412;2023-04-08T00:20:39;20.27;;;6.50;;
27794;SDS011;15176;50.844;4.412;2023-04-08T00:23:05;17.05;;;6.38;;
27794;SDS011;15176;50.844;4.412;2023-04-08T00:25:31;20.60;;;6.80;;
27794;SDS011;15176;50.844;4.412;2023-04-08T00:27:56;22.38;;;6.93;;
27794;SDS011;15176;50.844;4.412;2023-04-08T00:30:25;20.25;;;6.13;;
27794;SDS011;15176;50.844;4.412;2023-04-08T00:32:52;20.83;;;6.75;;
27794;SDS011;15176;50.844;4.412;2023-04-08T00:35:17;16.20;;;6.03;;
27794;SDS011;15176;50.844;4.412;2023-04-08T00:37:43;19.05;;;6.03;;
27794;SDS011;15176;50.844;4.412;2023-04-08T00:40:10;23.20;;;6.50;;
27794;SDS011;15176;50.844;4.412;2023-04-08T00:42:35;18.05;;;6.47;;
27794;SDS011;15176;50.844;4.412;2023-04-08T00:45:01;24.17;;;5.93;;
27794;SDS011;15176;50.844;4.412;2023-04-08T00:47:27;25.67;;;6.32;;
27794;SDS011;15176;50.844;4.412;2023-04-08T00:49:53;17.67;;;6.32;;
27794;SDS011;15176;50.844;4.412;2023-04-08T00:52:19;17.23;;;5.97;;
27794;SDS011;15176;50.844;4.412;2023-04-08T00:54:45;23.00;;;6.70;;
27794;SDS011;15176;50.844;4.412;2023-04-08T00:57:10;21.30;;;6.53;;
27794;SDS011;15176;50.844;4.412;2023-04-08T00:59:36;19.65;;;7.15;;
27794;SDS011;15176;50.844;4.412;2023-04-08T01:02:06;14.65;;;6.45;;
27794;SDS011;15176;50.844;4.412;2023-04-08T01:05:02;19.15;;;6.53;;
27794;SDS011;15176;50.844;4.412;2023-04-08T01:07:31;21.25;;;7.47;;
27794;SDS011;15176;50.844;4.412;2023-04-08T01:10:01;26.77;;;7.25;;
27794;SDS011;15176;50.844;4.412;2023-04-08T01:12:31;18.85;;;7.35;;
27794;SDS011;15176;50.844;4.412;2023-04-08T01:15:02;20.02;;;7.25;;
27794;SDS011;15176;50.844;4.412;2023-04-08T01:17:32;23.33;;;7.38;;
27794;SDS011;15176;50.844;4.412;2023-04-08T01:20:01;16.92;;;7.05;;
27794;SDS011;15176;50.844;4.412;2023-04-08T01:25:37;26.70;;;7.97;;
27794;SDS011;15176;50.844;4.412;2023-04-08T01:28:06;23.23;;;7.88;;
27794;SDS011;15176;50.844;4.412;2023-04-08T01:30:36;29.33;;;8.52;;
27794;SDS011;15176;50.844;4.412;2023-04-08T01:33:03;23.30;;;7.72;;
27794;SDS011;15176;50.844;4.412;2023-04-08T01:35:30;20.95;;;7.55;;
27794;SDS011;15176;50.844;4.412;2023-04-08T01:37:57;20.02;;;8.43;;
27794;SDS011;15176;50.844;4.412;2023-04-08T01:40:24;30.23;;;8.23;;
27794;SDS011;15176;50.844;4.412;2023-04-08T01:42:51;21.40;;;7.63;;
27794;SDS011;15176;50.844;4.412;2023-04-08T01:45:20;25.08;;;8.00;;
27794;SDS011;15176;50.844;4.412;2023-04-08T01:47:46;25.38;;;8.27;;
27794;SDS011;15176;50.844;4.412;2023-04-08T01:50:14;22.25;;;9.02;;
27794;SDS011;15176;50.844;4.412;2023-04-08T01:52:42;25.95;;;8.45;;
27794;SDS011;15176;50.844;4.412;2023-04-08T01:55:09;21.45;;;8.02;;
27794;SDS011;15176;50.844;4.412;2023-04-08T01:57:36;27.25;;;8.63;;
27794;SDS011;15176;50.844;4.412;2023-04-08T02:00:07;26.20;;;8.50;;
27794;SDS011;15176;50.844;4.412;2023-04-08T02:02:35;23.33;;;7.50;;
27794;SDS011;15176;50.844;4.412;2023-04-08T02:05:02;20.63;;;7.65;;
27794;SDS011;15176;50.844;4.412;2023-04-08T02:07:28;25.45;;;9.20;;
27794;SDS011;15176;50.844;4.412;2023-04-08T02:09:54;19.40;;;8.77;;
27794;SDS011;15176;50.844;4.412;2023-04-08T02:12:20;24.13;;;9.20;;
27794;SDS011;15176;50.844;4.412;2023-04-08T02:14:46;19.60;;;9.02;;
27794;SDS011;15176;50.844;4.412;2023-04-08T02:17:13;26.05;;;9.25;;
27794;SDS011;15176;50.844;4.412;2023-04-08T02:20:10;19.73;;;8.32;;
27794;SDS011;15176;50.844;4.412;2023-04-08T02:25:27;22.90;;;9.50;;
27794;SDS011;15176;50.844;4.412;2023-04-08T02:27:54;22.13;;;9.52;;
27794;SDS011;15176;50.844;4.412;2023-04-08T02:30:21;26.42;;;9.40;;
27794;SDS011;15176;50.844;4.412;2023-04-08T02:32:49;24.73;;;10.45;;
27794;SDS011;15176;50.844;4.412;2023-04-08T02:35:17;25.83;;;10.27;;
27794;SDS011;15176;50.844;4.412;2023-04-08T02:37:44;24.60;;;10.48;;
27794;SDS011;15176;50.844;4.412;2023-04-08T02:40:47;18.58;;;8.48;;
27794;SDS011;15176;50.844;4.412;2023-04-08T02:43:06;21.95;;;10.18;;
27794;SDS011;15176;50.844;4.412;2023-04-08T02:45:32;20.88;;;8.63;;
27794;SDS011;15176;50.844;4.412;2023-04-08T02:48:03;24.85;;;9.63;;
27794;SDS011;15176;50.844;4.412;2023-04-08T02:50:30;23.38;;;10.80;;
27794;SDS011;15176;50.844;4.412;2023-04-08T02:52:56;22.67;;;11.00;;
27794;SDS011;15176;50.844;4.412;2023-04-08T02:55:21;23.85;;;11.10;;
27794;SDS011;15176;50.844;4.412;2023-04-08T02:57:47;24.83;;;10.43;;
27794;SDS011;15176;50.844;4.412;2023-04-08T03:00:13;28.33;;;8.77;;
27794;SDS011;15176;50.844;4.412;2023-04-08T03:02:40;18.67;;;9.63;;
27794;SDS011;15176;50.844;4.412;2023-04-08T03:05:06;22.13;;;10.27;;
27794;SDS011;15176;50.844;4.412;2023-04-08T03:07:32;23.60;;;9.80;;
27794;SDS011;15176;50.844;4.412;2023-04-08T03:09:57;24.27;;;9.15;;
27794;SDS011;15176;50.844;4.412;2023-04-08T03:12:23;27.15;;;9.73;;
27794;SDS011;15176;50.844;4.412;2023-04-08T03:14:51;21.85;;;9.77;;
27794;SDS011;15176;50.844;4.412;2023-04-08T03:17:17;18.13;;;8.88;;
27794;SDS011;15176;50.844;4.412;2023-04-08T03:19:43;24.90;;;9.00;;
27794;SDS011;15176;50.844;4.412;2023-04-08T03:22:08;19.55;;;8.73;;
27794;SDS011;15176;50.844;4.412;2023-04-08T03:24:34;22.20;;;10.07;;
27794;SDS011;15176;50.844;4.412;2023-04-08T03:27:00;18.77;;;9.35;;
27794;SDS011;15176;50.844;4.412;2023-04-08T03:29:26;25.25;;;9.73;;
27794;SDS011;15176;50.844;4.412;2023-04-08T03:31:52;19.88;;;8.65;;
27794;SDS011;15176;50.844;4.412;2023-04-08T03:34:18;25.42;;;11.00;;
27794;SDS011;15176;50.844;4.412;2023-04-08T03:36:44;24.80;;;10.93;;
27794;SDS011;15176;50.844;4.412;2023-04-08T03:39:10;26.40;;;11.65;;
27794;SDS011;15176;50.844;4.412;2023-04-08T03:41:37;23.23;;;11.68;;
27794;SDS011;15176;50.844;4.412;2023-04-08T03:44:02;28.17;;;12.27;;
27794;SDS011;15176;50.844;4.412;2023-04-08T03:46:28;24.05;;;12.60;;
27794;SDS011;15176;50.844;4.412;2023-04-08T03:48:54;28.08;;;11.32;;
27794;SDS011;15176;50.844;4.412;2023-04-08T03:51:19;28.48;;;13.40;;
27794;SDS011;15176;50.844;4.412;2023-04-08T03:53:45;25.88;;;13.20;;
27794;SDS011;15176;50.844;4.412;2023-04-08T03:56:12;30.13;;;13.43;;
27794;SDS011;15176;50.844;4.412;2023-04-08T03:58:37;34.70;;;13.38;;
27794;SDS011;15176;50.844;4.412;2023-04-08T04:01:03;35.55;;;14.13;;
27794;SDS011;15176;50.844;4.412;2023-04-08T04:03:29;32.85;;;13.98;;
27794;SDS011;15176;50.844;4.412;2023-04-08T04:05:56;29.10;;;13.13;;
27794;SDS011;15176;50.844;4.412;2023-04-08T04:08:21;31.95;;;15.25;;
27794;SDS011;15176;50.844;4.412;2023-04-08T04:10:47;31.92;;;14.48;;
27794;SDS011;15176;50.844;4.412;2023-04-08T04:13:13;27.25;;;14.82;;
27794;SDS011;15176;50.844;4.412;2023-04-08T04:15:51;32.28;;;14.80;;
27794;SDS011;15176;50.844;4.412;2023-04-08T04:18:17;33.38;;;14.63;;
27794;SDS011;15176;50.844;4.412;2023-04-08T04:20:43;34.40;;;14.50;;
27794;SDS011;15176;50.844;4.412;2023-04-08T04:23:09;28.92;;;13.45;;
27794;SDS011;15176;50.844;4.412;2023-04-08T04:25:35;35.58;;;14.20;;
27794;SDS011;15176;50.844;4.412;2023-04-08T04:28:00;38.45;;;14.27;;
27794;SDS011;15176;50.844;4.412;2023-04-08T04:30:27;34.92;;;15.43;;
27794;SDS011;15176;50.844;4.412;2023-04-08T04:32:53;32.60;;;15.85;;
27794;SDS011;15176;50.844;4.412;2023-04-08T04:35:20;38.08;;;16.40;;
27794;SDS011;15176;50.844;4.412;2023-04-08T04:37:45;29.60;;;14.25;;
27794;SDS011;15176;50.844;4.412;2023-04-08T04:40:11;33.08;;;15.73;;
27794;SDS011;15176;50.844;4.412;2023-04-08T04:42:37;30.13;;;16.63;;
27794;SDS011;15176;50.844;4.412;2023-04-08T04:45:03;34.22;;;16.05;;
27794;SDS011;15176;50.844;4.412;2023-04-08T04:47:29;38.05;;;16.50;;
27794;SDS011;15176;50.844;4.412;2023-04-08T04:49:56;30.25;;;15.52;;
27794;SDS011;15176;50.844;4.412;2023-04-08T04:52:22;36.33;;;15.95;;
27794;SDS011;15176;50.844;4.412;2023-04-08T04:54:47;36.22;;;15.68;;
27794;SDS011;15176;50.844;4.412;2023-04-08T04:57:13;34.28;;;15.13;;
27794;SDS011;15176;50.844;4.412;2023-04-08T04:59:39;32.22;;;14.85;;
27794;SDS011;15176;50.844;4.412;2023-04-08T05:02:05;34.40;;;16.13;;
27794;SDS011;15176;50.844;4.412;2023-04-08T05:04:30;35.83;;;15.18;;
27794;SDS011;15176;50.844;4.412;2023-04-08T05:06:58;29.55;;;14.82;;
27794;SDS011;15176;50.844;4.412;2023-04-08T05:09:24;36.70;;;16.33;;
27794;SDS011;15176;50.844;4.412;2023-04-08T05:11:50;34.20;;;15.88;;
27794;SDS011;15176;50.844;4.412;2023-04-08T05:14:15;41.65;;;15.15;;
27794;SDS011;15176;50.844;4.412;2023-04-08T05:16:41;32.65;;;15.75;;
27794;SDS011;15176;50.844;4.412;2023-04-08T05:19:07;36.63;;;16.98;;
27794;SDS011;15176;50.844;4.412;2023-04-08T05:21:32;36.20;;;15.98;;
27794;SDS011;15176;50.844;4.412;2023-04-08T05:23:58;37.65;;;16.05;;
27794;SDS011;15176;50.844;4.412;2023-04-08T05:26:23;38.13;;;16.35;;
27794;SDS011;15176;50.844;4.412;2023-04-08T05:28:50;37.95;;;16.27;;
27794;SDS011;15176;50.844;4.412;2023-04-08T05:31:16;36.78;;;15.52;;
27794;SDS011;15176;50.844;4.412;2023-04-08T05:33:42;33.55;;;16.00;;
27794;SDS011;15176;50.844;4.412;2023-04-08T05:36:09;43.50;;;17.65;;
27794;SDS011;15176;50.844;4.412;2023-04-08T05:38:35;38.22;;;16.75;;
27794;SDS011;15176;50.844;4.412;2023-04-08T05:41:01;41.20;;;16.23;;
27794;SDS011;15176;50.844;4.412;2023-04-08T05:43:27;37.55;;;15.95;;
27794;SDS011;15176;50.844;4.412;2023-04-08T05:45:52;36.55;;;16.67;;
27794;SDS011;15176;50.844;4.412;2023-04-08T05:48:18;33.85;;;16.35;;
27794;SDS011;15176;50.844;4.412;2023-04-08T05:50:44;37.50;;;15.90;;
27794;SDS011;15176;50.844;4.412;2023-04-08T05:53:12;35.33;;;15.52;;
27794;SDS011;15176;50.844;4.412;2023-04-08T05:55:38;33.03;;;15.95;;
27794;SDS011;15176;50.844;4.412;2023-04-08T05:58:04;36.90;;;15.85;;
27794;SDS011;15176;50.844;4.412;2023-04-08T06:00:30;36.15;;;16.05;;
27794;SDS011;15176;50.844;4.412;2023-04-08T06:02:56;34.47;;;15.85;;
27794;SDS011;15176;50.844;4.412;2023-04-08T06:05:21;34.70;;;15.65;;
27794;SDS011;15176;50.844;4.412;2023-04-08T06:07:47;30.35;;;15.07;;
27794;SDS011;15176;50.844;4.412;2023-04-08T06:10:13;39.90;;;15.50;;
27794;SDS011;15176;50.844;4.412;2023-04-08T06:12:38;35.15;;;15.75;;
27794;SDS011;15176;50.844;4.412;2023-04-08T06:15:08;35.55;;;15.52;;
27794;SDS011;15176;50.844;4.412;2023-04-08T06:17:37;35.67;;;15.70;;
27794;SDS011;15176;50.844;4.412;2023-04-08T06:20:06;29.63;;;15.38;;
27794;SDS011;15176;50.844;4.412;2023-04-08T06:22:35;43.83;;;16.70;;
27794;SDS011;15176;50.844;4.412;2023-04-08T06:25:02;34.70;;;15.70;;
27794;SDS011;15176;50.844;4.412;2023-04-08T06:27:28;39.47;;;15.55;;
27794;SDS011;15176;50.844;4.412;2023-04-08T06:29:54;37.13;;;16.02;;
27794;SDS011;15176;50.844;4.412;2023-04-08T06:32:20;37.05;;;16.73;;
27794;SDS011;15176;50.844;4.412;2023-04-08T06:34:46;28.05;;;12.85;;
27794;SDS011;15176;50.844;4.412;2023-04-08T06:37:12;36.70;;;16.83;;
27794;SDS011;15176;50.844;4.412;2023-04-08T06:39:38;34.92;;;15.98;;
27794;SDS011;15176;50.844;4.412;2023-04-08T06:42:04;35.83;;;16.33;;
27794;SDS011;15176;50.844;4.412;2023-04-08T06:44:30;39.72;;;16.80;;
27794;SDS011;15176;50.844;4.412;2023-04-08T06:46:56;30.25;;;15.30;;
27794;SDS011;15176;50.844;4.412;2023-04-08T06:49:21;33.25;;;15.05;;
27794;SDS011;15176;50.844;4.412;2023-04-08T06:51:47;35.92;;;18.27;;
27794;SDS011;15176;50.844;4.412;2023-04-08T06:54:13;32.80;;;15.93;;
27794;SDS011;15176;50.844;4.412;2023-04-08T06:56:38;30.77;;;14.55;;
27794;SDS011;15176;50.844;4.412;2023-04-08T06:59:04;35.85;;;16.02;;
27794;SDS011;15176;50.844;4.412;2023-04-08T07:01:30;32.47;;;15.80;;
27794;SDS011;15176;50.844;4.412;2023-04-08T07:03:59;29.67;;;14.82;;
27794;SDS011;15176;50.844;4.412;2023-04-08T07:06:26;32.45;;;14.63;;
27794;SDS011;15176;50.844;4.412;2023-04-08T07:08:52;23.13;;;12.27;;
27794;SDS011;15176;50.844;4.412;2023-04-08T07:11:17;29.42;;;14.85;;
27794;SDS011;15176;50.844;4.412;2023-04-08T07:13:43;33.33;;;15.98;;
27794;SDS011;15176;50.844;4.412;2023-04-08T07:16:08;33.03;;;14.88;;
27794;SDS011;15176;50.844;4.412;2023-04-08T07:18:34;29.13;;;14.32;;
27794;SDS011;15176;50.844;4.412;2023-04-08T07:21:00;27.02;;;12.65;;
27794;SDS011;15176;50.844;4.412;2023-04-08T07:23:26;24.75;;;13.63;;
27794;SDS011;15176;50.844;4.412;2023-04-08T07:25:52;25.02;;;12.93;;
27794;SDS011;15176;50.844;4.412;2023-04-08T07:28:21;22.80;;;12.05;;
27794;SDS011;15176;50.844;4.412;2023-04-08T07:30:46;25.92;;;13.18;;
27794;SDS011;15176;50.844;4.412;2023-04-08T07:33:12;23.73;;;11.80;;
27794;SDS011;15176;50.844;4.412;2023-04-08T07:35:39;25.60;;;12.35;;
27794;SDS011;15176;50.844;4.412;2023-04-08T07:38:05;26.85;;;12.90;;
27794;SDS011;15176;50.844;4.412;2023-04-08T07:40:35;27.48;;;13.32;;
27794;SDS011;15176;50.844;4.412;2023-04-08T07:43:01;26.85;;;12.77;;
27794;SDS011;15176;50.844;4.412;2023-04-08T07:45:26;27.88;;;12.82;;
27794;SDS011;15176;50.844;4.412;2023-04-08T07:47:52;28.60;;;11.80;;
27794;SDS011;15176;50.844;4.412;2023-04-08T07:50:18;24.33;;;12.77;;
27794;SDS011;15176;50.844;4.412;2023-04-08T07:52:44;25.17;;;12.90;;
27794;SDS011;15176;50.844;4.412;2023-04-08T07:55:10;22.67;;;11.13;;
27794;SDS011;15176;50.844;4.412;2023-04-08T07:57:36;23.48;;;12.55;;
27794;SDS011;15176;50.844;4.412;2023-04-08T08:00:01;25.00;;;12.88;;
27794;SDS011;15176;50.844;4.412;2023-04-08T08:02:28;26.92;;;13.85;;
27794;SDS011;15176;50.844;4.412;2023-04-08T08:04:54;26.45;;;12.80;;
27794;SDS011;15176;50.844;4.412;2023-04-08T08:07:20;25.38;;;12.32;;
27794;SDS011;15176;50.844;4.412;2023-04-08T08:09:46;27.83;;;13.30;;
27794;SDS011;15176;50.844;4.412;2023-04-08T08:12:11;32.65;;;14.07;;
27794;SDS011;15176;50.844;4.412;2023-04-08T08:14:37;30.13;;;14.25;;
27794;SDS011;15176;50.844;4.412;2023-04-08T08:17:03;29.10;;;14.70;;
27794;SDS011;15176;50.844;4.412;2023-04-08T08:19:28;26.70;;;13.52;;
27794;SDS011;15176;50.844;4.412;2023-04-08T08:21:54;27.92;;;14.25;;
27794;SDS011;15176;50.844;4.412;2023-04-08T08:24:21;21.63;;;12.52;;
27794;SDS011;15176;50.844;4.412;2023-04-08T08:26:46;24.75;;;14.05;;
27794;SDS011;15176;50.844;4.412;2023-04-08T08:29:14;28.50;;;14.90;;
27794;SDS011;15176;50.844;4.412;2023-04-08T08:31:40;25.17;;;13.77;;
27794;SDS011;15176;50.844;4.412;2023-04-08T08:34:05;22.40;;;12.32;;
27794;SDS011;15176;50.844;4.412;2023-04-08T08:36:31;25.42;;;12.98;;
27794;SDS011;15176;50.844;4.412;2023-04-08T08:38:57;26.27;;;12.60;;
27794;SDS011;15176;50.844;4.412;2023-04-08T08:41:22;25.13;;;13.55;;
27794;SDS011;15176;50.844;4.412;2023-04-08T08:43:48;26.13;;;13.40;;
27794;SDS011;15176;50.844;4.412;2023-04-08T08:46:15;27.38;;;14.15;;
27794;SDS011;15176;50.844;4.412;2023-04-08T08:48:43;22.25;;;13.25;;
27794;SDS011;15176;50.844;4.412;2023-04-08T08:51:09;21.10;;;12.52;;
27794;SDS011;15176;50.844;4.412;2023-04-08T08:53:36;24.00;;;12.68;;
27794;SDS011;15176;50.844;4.412;2023-04-08T08:56:03;19.42;;;11.52;;
27794;SDS011;15176;50.844;4.412;2023-04-08T08:58:32;24.92;;;12.77;;
27794;SDS011;15176;50.844;4.412;2023-04-08T09:00:58;22.15;;;11.20;;
27794;SDS011;15176;50.844;4.412;2023-04-08T09:03:25;24.80;;;12.65;;
27794;SDS011;15176;50.844;4.412;2023-04-08T09:05:52;25.67;;;13.07;;
27794;SDS011;15176;50.844;4.412;2023-04-08T09:08:27;22.42;;;12.90;;
27794;SDS011;15176;50.844;4.412;2023-04-08T09:10:53;24.13;;;12.48;;
27794;SDS011;15176;50.844;4.412;2023-04-08T09:13:20;22.65;;;13.18;;
27794;SDS011;15176;50.844;4.412;2023-04-08T09:16:04;22.92;;;10.57;;
27794;SDS011;15176;50.844;4.412;2023-04-08T09:18:35;20.58;;;11.05;;
27794;SDS011;15176;50.844;4.412;2023-04-08T09:21:02;20.90;;;11.77;;
27794;SDS011;15176;50.844;4.412;2023-04-08T09:23:48;21.48;;;12.25;;
27794;SDS011;15176;50.844;4.412;2023-04-08T09:26:19;23.58;;;13.02;;
27794;SDS011;15176;50.844;4.412;2023-04-08T09:29:02;24.77;;;14.10;;
27794;SDS011;15176;50.844;4.412;2023-04-08T09:31:31;27.23;;;14.70;;
27794;SDS011;15176;50.844;4.412;2023-04-08T09:34:14;26.30;;;13.98;;
27794;SDS011;15176;50.844;4.412;2023-04-08T09:36:42;28.52;;;14.05;;
27794;SDS011;15176;50.844;4.412;2023-04-08T09:39:11;25.27;;;14.23;;
27794;SDS011;15176;50.844;4.412;2023-04-08T09:41:37;26.45;;;13.60;;
27794;SDS011;15176;50.844;4.412;2023-04-08T09:44:04;24.98;;;14.60;;
27794;SDS011;15176;50.844;4.412;2023-04-08T09:54:54;23.58;;;13.07;;
27794;SDS011;15176;50.844;4.412;2023-04-08T09:57:39;24.55;;;13.88;;
27794;SDS011;15176;50.844;4.412;2023-04-08T10:00:12;21.63;;;14.40;;
27794;SDS011;15176;50.844;4.412;2023-04-08T10:03:26;26.27;;;13.82;;
27794;SDS011;15176;50.844;4.412;2023-04-08T10:05:28;23.25;;;13.20;;
27794;SDS011;15176;50.844;4.412;2023-04-08T10:07:55;26.42;;;14.35;;
27794;SDS011;15176;50.844;4.412;2023-04-08T10:10:21;21.30;;;13.38;;
27794;SDS011;15176;50.844;4.412;2023-04-08T10:12:48;20.80;;;12.23;;
27794;SDS011;15176;50.844;4.412;2023-04-08T10:15:21;22.98;;;13.57;;
27794;SDS011;15176;50.844;4.412;2023-04-08T10:17:50;19.52;;;11.57;;
27794;SDS011;15176;50.844;4.412;2023-04-08T10:23:04;20.48;;;9.20;;
27794;SDS011;15176;50.844;4.412;2023-04-08T10:25:37;19.10;;;9.68;;
27794;SDS011;15176;50.844;4.412;2023-04-08T10:30:43;20.35;;;11.27;;
27794;SDS011;15176;50.844;4.412;2023-04-08T10:35:48;20.23;;;12.60;;
27794;SDS011;15176;50.844;4.412;2023-04-08T10:38:19;18.10;;;12.45;;
27794;SDS011;15176;50.844;4.412;2023-04-08T10:40:46;19.38;;;11.57;;
27794;SDS011;15176;50.844;4.412;2023-04-08T10:43:13;21.25;;;11.93;;
27794;SDS011;15176;50.844;4.412;2023-04-08T10:45:40;16.88;;;10.52;;
27794;SDS011;15176;50.844;4.412;2023-04-08T10:48:19;17.20;;;10.77;;
27794;SDS011;15176;50.844;4.412;2023-04-08T10:53:25;18.67;;;11.23;;
27794;SDS011;15176;50.844;4.412;2023-04-08T10:58:35;20.08;;;10.98;;
27794;SDS011;15176;50.844;4.412;2023-04-08T11:01:04;20.40;;;11.43;;
27794;SDS011;15176;50.844;4.412;2023-04-08T11:03:31;17.40;;;9.50;;
27794;SDS011;15176;50.844;4.412;2023-04-08T11:05:58;15.77;;;9.57;;
27794;SDS011;15176;50.844;4.412;2023-04-08T11:08:31;21.77;;;10.02;;
27794;SDS011;15176;50.844;4.412;2023-04-08T11:10:58;19.77;;;10.55;;
27794;SDS011;15176;50.844;4.412;2023-04-08T11:13:28;21.98;;;11.32;;
27794;SDS011;15176;50.844;4.412;2023-04-08T11:15:55;23.73;;;12.52;;
27794;SDS011;15176;50.844;4.412;2023-04-08T11:18:23;20.48;;;12.70;;
27794;SDS011;15176;50.844;4.412;2023-04-08T11:20:50;19.98;;;12.40;;
27794;SDS011;15176;50.844;4.412;2023-04-08T11:23:18;19.10;;;12.07;;
27794;SDS011;15176;50.844;4.412;2023-04-08T11:25:46;22.73;;;12.00;;
27794;SDS011;15176;50.844;4.412;2023-04-08T11:28:12;21.05;;;11.68;;
27794;SDS011;15176;50.844;4.412;2023-04-08T11:30:39;21.45;;;11.57;;
27794;SDS011;15176;50.844;4.412;2023-04-08T11:33:06;20.45;;;11.65;;
27794;SDS011;15176;50.844;4.412;2023-04-08T11:35:32;20.05;;;11.13;;
27794;SDS011;15176;50.844;4.412;2023-04-08T11:37:58;20.27;;;11.70;;
27794;SDS011;15176;50.844;4.412;2023-04-08T11:40:24;17.55;;;10.98;;
27794;SDS011;15176;50.844;4.412;2023-04-08T11:42:50;21.20;;;11.35;;
27794;SDS011;15176;50.844;4.412;2023-04-08T11:45:20;20.35;;;11.52;;
27794;SDS011;15176;50.844;4.412;2023-04-08T11:47:46;18.23;;;11.38;;
27794;SDS011;15176;50.844;4.412;2023-04-08T11:50:17;18.45;;;10.48;;
27794;SDS011;15176;50.844;4.412;2023-04-08T11:52:50;22.02;;;13.32;;
27794;SDS011;15176;50.844;4.412;2023-04-08T11:55:35;23.88;;;12.68;;
27794;SDS011;15176;50.844;4.412;2023-04-08T11:58:02;22.60;;;13.57;;
27794;SDS011;15176;50.844;4.412;2023-04-08T12:00:29;22.30;;;12.77;;
27794;SDS011;15176;50.844;4.412;2023-04-08T12:02:55;22.38;;;13.25;;
27794;SDS011;15176;50.844;4.412;2023-04-08T12:05:21;22.13;;;12.90;;
27794;SDS011;15176;50.844;4.412;2023-04-08T12:07:46;22.50;;;13.45;;
27794;SDS011;15176;50.844;4.412;2023-04-08T12:10:12;19.02;;;12.35;;
27794;SDS011;15176;50.844;4.412;2023-04-08T12:12:38;24.23;;;13.70;;
27794;SDS011;15176;50.844;4.412;2023-04-08T12:15:05;20.95;;;13.32;;
27794;SDS011;15176;50.844;4.412;2023-04-08T12:17:32;20.55;;;13.38;;
27794;SDS011;15176;50.844;4.412;2023-04-08T12:19:58;21.42;;;12.70;;
27794;SDS011;15176;50.844;4.412;2023-04-08T12:22:25;20.25;;;13.05;;
27794;SDS011;15176;50.844;4.412;2023-04-08T12:24:51;23.02;;;13.77;;
27794;SDS011;15176;50.844;4.412;2023-04-08T12:27:16;23.50;;;13.38;;
27794;SDS011;15176;50.844;4.412;2023-04-08T12:29:42;24.25;;;14.73;;
27794;SDS011;15176;50.844;4.412;2023-04-08T12:32:08;23.27;;;13.13;;
27794;SDS011;15176;50.844;4.412;2023-04-08T12:34:34;21.13;;;12.40;;
27794;SDS011;15176;50.844;4.412;2023-04-08T12:36:59;22.48;;;12.60;;
27794;SDS011;15176;50.844;4.412;2023-04-08T12:39:26;22.80;;;11.68;;
27794;SDS011;15176;50.844;4.412;2023-04-08T12:41:52;20.65;;;12.50;;
27794;SDS011;15176;50.844;4.412;2023-04-08T12:44:18;22.25;;;11.55;;
27794;SDS011;15176;50.844;4.412;2023-04-08T12:46:44;18.65;;;12.30;;
27794;SDS011;15176;50.844;4.412;2023-04-08T12:49:10;19.27;;;12.38;;
27794;SDS011;15176;50.844;4.412;2023-04-08T12:51:36;22.60;;;12.40;;
27794;SDS011;15176;50.844;4.412;2023-04-08T12:54:02;17.58;;;11.73;;
27794;SDS011;15176;50.844;4.412;2023-04-08T12:56:28;23.45;;;12.27;;
27794;SDS011;15176;50.844;4.412;2023-04-08T12:58:55;18.40;;;11.73;;
27794;SDS011;15176;50.844;4.412;2023-04-08T13:01:21;21.02;;;11.50;;
27794;SDS011;15176;50.844;4.412;2023-04-08T13:03:47;16.58;;;10.32;;
27794;SDS011;15176;50.844;4.412;2023-04-08T13:06:13;17.52;;;11.18;;
27794;SDS011;15176;50.844;4.412;2023-04-08T13:08:39;19.83;;;11.63;;
27794;SDS011;15176;50.844;4.412;2023-04-08T13:11:06;19.77;;;11.70;;
27794;SDS011;15176;50.844;4.412;2023-04-08T13:13:32;20.90;;;11.40;;
27794;SDS011;15176;50.844;4.412;2023-04-08T13:15:58;20.70;;;11.60;;
27794;SDS011;15176;50.844;4.412;2023-04-08T13:18:23;18.00;;;10.65;;
27794;SDS011;15176;50.844;4.412;2023-04-08T13:20:49;17.80;;;11.57;;
27794;SDS011;15176;50.844;4.412;2023-04-08T13:23:15;18.38;;;10.90;;
27794;SDS011;15176;50.844;4.412;2023-04-08T13:25:48;17.90;;;11.18;;
27794;SDS011;15176;50.844;4.412;2023-04-08T13:28:13;18.10;;;11.05;;
27794;SDS011;15176;50.844;4.412;2023-04-08T13:30:39;16.77;;;10.35;;
27794;SDS011;15176;50.844;4.412;2023-04-08T13:33:06;19.05;;;11.82;;
27794;SDS011;15176;50.844;4.412;2023-04-08T13:35:32;18.25;;;12.02;;
27794;SDS011;15176;50.844;4.412;2023-04-08T13:37:57;22.30;;;11.50;;
27794;SDS011;15176;50.844;4.412;2023-04-08T13:40:23;21.50;;;11.77;;
27794;SDS011;15176;50.844;4.412;2023-04-08T13:42:49;18.50;;;10.88;;
27794;SDS011;15176;50.844;4.412;2023-04-08T13:45:14;19.00;;;11.30;;
27794;SDS011;15176;50.844;4.412;2023-04-08T13:47:40;20.30;;;11.43;;
27794;SDS011;15176;50.844;4.412;2023-04-08T13:50:06;20.10;;;11.45;;
27794;SDS011;15176;50.844;4.412;2023-04-08T13:52:32;18.27;;;11.10;;
27794;SDS011;15176;50.844;4.412;2023-04-08T13:54:58;12.50;;;8.02;;
27794;SDS011;15176;50.844;4.412;2023-04-08T13:57:24;18.88;;;10.38;;
27794;SDS011;15176;50.844;4.412;2023-04-08T13:59:51;17.15;;;10.30;;
27794;SDS011;15176;50.844;4.412;2023-04-08T14:02:16;18.23;;;10.93;;
27794;SDS011;15176;50.844;4.412;2023-04-08T14:04:42;19.60;;;11.48;;
27794;SDS011;15176;50.844;4.412;2023-04-08T14:07:11;18.48;;;11.73;;
27794;SDS011;15176;50.844;4.412;2023-04-08T14:09:37;17.63;;;11.48;;
27794;SDS011;15176;50.844;4.412;2023-04-08T14:12:03;16.10;;;10.93;;
27794;SDS011;15176;50.844;4.412;2023-04-08T14:14:29;18.98;;;12.02;;
27794;SDS011;15176;50.844;4.412;2023-04-08T14:16:55;16.65;;;10.65;;
27794;SDS011;15176;50.844;4.412;2023-04-08T14:19:21;20.13;;;10.90;;
27794;SDS011;15176;50.844;4.412;2023-04-08T14:21:47;19.60;;;12.50;;
27794;SDS011;15176;50.844;4.412;2023-04-08T14:24:12;18.77;;;12.05;;
27794;SDS011;15176;50.844;4.412;2023-04-08T14:26:38;16.65;;;11.88;;
27794;SDS011;15176;50.844;4.412;2023-04-08T14:29:05;19.85;;;12.05;;
27794;SDS011;15176;50.844;4.412;2023-04-08T14:31:31;21.13;;;12.00;;
27794;SDS011;15176;50.844;4.412;2023-04-08T14:33:58;19.48;;;12.30;;
27794;SDS011;15176;50.844;4.412;2023-04-08T14:36:24;20.80;;;12.18;;
27794;SDS011;15176;50.844;4.412;2023-04-08T14:38:52;19.30;;;12.88;;
27794;SDS011;15176;50.844;4.412;2023-04-08T14:41:19;22.70;;;13.57;;
27794;SDS011;15176;50.844;4.412;2023-04-08T14:43:45;20.10;;;13.25;;
27794;SDS011;15176;50.844;4.412;2023-04-08T14:46:11;23.92;;;13.90;;
27794;SDS011;15176;50.844;4.412;2023-04-08T14:48:37;19.73;;;12.48;;
27794;SDS011;15176;50.844;4.412;2023-04-08T14:51:03;21.58;;;12.35;;